Aviation Digital Data Service (ADDS)

Output produced by METARs form (0652 UTC 24 March 2019)
found at http://www.aviationweather.gov/metar/data/
 
LZKZ 240630Z 04003KT CAVOK 08/01 Q1023 NOSIG
TAF LZKZ 240500Z 2406/2506 03005KT CAVOK 
     BECMG 2407/2409 03012KT 
     BECMG 2411/2413 9999 BKN045 
     TEMPO 2501/2506 -RA BKN030
       
LZIB 240630Z 11004KT 9999 MIFG NSC 07/05 Q1023 NOSIG
TAF LZIB 240500Z 2406/2506 VRB02KT 6000 MIFG NSC 
     BECMG 2407/2409 06008KT 9999 SCT040 
     BECMG 2413/2415 22008KT 
     BECMG 2421/2423 30010KT
       
TAF LZMC 240430Z 2406/2418 VRB04KT 3000 MIFG NSC 
     BECMG 2407/2410 9999 SCT035 
     TEMPO 2410/2415 28008KT 9999 BKN035
       
LZPP 240630Z 01010KT CAVOK 09/06 Q1023
TAF LZPP 240500Z 2406/2415 01006KT 6000 SCT040
       
LZSL 240630Z VRB01KT 9999 FEW004 04/03 Q1024
TAF LZSL 240500Z 2406/2415 VRB02KT CAVOK 
     PROB40 2406/2408 2400 MIFG SCT005 
     PROB30 
     TEMPO 2406/2407 0600 FG BKN002
       
LZTT 240630Z 32004KT 280V340 9999 FEW026 07/04 Q1023 NOSIG
TAF LZTT 240500Z 2406/2506 24003KT CAVOK 
     TEMPO 2406/2408 1400 BCFG BKN004 
     PROB30 2406/2408 0400 FG BKN002 
     BECMG 2408/2410 06009KT 9999 SCT020 BKN050 
     TEMPO 2419/2506 VRB02KT 5000 -RA BKN013 OVC020
       
LZZI 240630Z 06009KT 6000 BKN018 09/06 Q1024
TAF LZZI 240500Z 2406/2415 10005KT 9999 BKN017 
     PROB40 2406/2408 2400 MIFG SCT005 
     TEMPO 2406/2407 0600 FG BKN002